Terminal Aerodrome Forecast
Issued by NWS

Home | Current Version | Previous Version | Graphics & Text | Print | Product List | Glossary On
Versions: 1 2 3 4 5 6 7 8 9 10 11 12 13 14 15 16 17 18 19 20 21 22 23 24 25 26 27 28 29 30 31 32 33 34 35 36 37 38 39 40 41
000
FTUS43 KLOT 121400 AAC
TAFDPA
TAF AMD
KDPA 121456Z 1215/1312 15006KT 6SM -RA BR SCT012 BKN020 OVC060
     FM121700 22010KT P6SM BKN035 BKN120
     FM130000 22010G16KT P6SM VCTS BKN040CB
     FM130300 26010KT 3SM TSRA SCT015 OVC035CB
     FM130700 31005KT P6SM SCT020 OVC040=

USA.gov is the U.S. government's official web portal to all federal, state and local government web resources and services.